Lexington RPC :: White House 1

liberation: 2021-09-04  08:30     latitude: 36.471317     longitude: -86.678083 48 birds
# LOFT PRING MILES ARRIVAL SPEED ToWin
1 Kastle Loft AU21-KAST-2176 160.808 2021-09-04 11:47:18.045 1434.470 00:00:00
2 Kastle Loft AU21-KAST-2140 160.808 2021-09-04 11:47:18.959 1434.359 00:00:01
3 Kastle Loft AU21-KAST-2177 160.808 2021-09-04 11:47:20.993 1434.113 00:00:03
4 Kastle Loft AU21-KAST-2169 160.808 2021-09-04 11:47:21.359 1434.068 00:00:03
5 Kastle Loft AU21-KAST-2107 160.808 2021-09-04 11:47:22.924 1433.879 00:00:05
6 Kastle Loft AU21-KAST-2121 160.808 2021-09-04 11:47:24.750 1433.658 00:00:07
7 Kastle Loft AU21-KAST-2111 160.808 2021-09-04 11:47:24.858 1433.645 00:00:07
8 Kastle Loft AU21-KAST-2182 160.808 2021-09-04 11:47:26.394 1433.459 00:00:08
9 Kastle Loft AU21-KAST-2150 160.808 2021-09-04 11:47:27.332 1433.345 00:00:09
10 Kastle Loft AU21-LKY-0300 160.808 2021-09-04 11:47:29.236 1433.115 00:00:11
11 Kastle Loft AU21-KAST-2152 160.808 2021-09-04 11:47:31.347 1432.860 00:00:13
12 Kastle Loft AU21-KAST-2190 160.808 2021-09-04 11:47:31.718 1432.815 00:00:14
13 Kastle Loft AU21-KAST-2181 160.808 2021-09-04 11:47:33.193 1432.636 00:00:15
14 Kastle Loft AU21-KAST-2154 160.808 2021-09-04 11:47:36.098 1432.285 00:00:18
15 Kastle Loft AU21-KAST-2115 160.808 2021-09-04 11:47:38.208 1432.031 00:00:20
16 Kastle Loft AU21-KAST-2100 160.808 2021-09-04 11:47:42.890 1431.465 00:00:25
17 Kastle Loft AU21-KAST-2153 160.808 2021-09-04 11:47:44.718 1431.245 00:00:27
18 Kastle Loft AU21-KAST-2155 160.808 2021-09-04 11:48:56.339 1422.657 00:01:38
19 Kastle Loft AU21-KAST-2124 160.808 2021-09-04 12:01:28.123 1338.363 00:14:10
20 Kastle Loft AU21-KAST-2196 160.808 2021-09-04 12:01:29.623 1338.205 00:14:12
21 Kastle Loft AU21-KAST-2108 160.808 2021-09-04 12:09:04.029 1291.941 00:21:46
22 Tuttle Lane Loft AU21-LKY-0177 147.152 2021-09-04 12:07:51.457 1188.795 00:37:19
23 Kastle Loft AU21-LKY-0296 160.808 2021-09-04 12:31:19.373 1172.794 00:44:01
24 Tuttle Lane Loft AU21-LKY-0015 147.152 2021-09-04 12:46:32.959 1009.506 01:16:00
25 Tuttle Lane Loft AU21-LKY-0243 147.152 2021-09-04 12:50:31.946 994.072 01:19:59
26 Tuttle Lane Loft AU21-LKY-0225 147.152 2021-09-04 12:50:33.675 993.962 01:20:01
27 Tuttle Lane Loft AU21-LKY-0216 147.152 2021-09-04 12:50:34.970 993.880 01:20:02
28 Tuttle Lane Loft AU21-LKY-0245 147.152 2021-09-04 12:50:40.941 993.500 01:20:08
29 Tuttle Lane Loft AU21-LKY-0030 147.152 2021-09-04 13:52:55.284 802.016 02:22:23
30 Tuttle Lane Loft AU21-LKY-0232 147.152 2021-09-04 14:15:57.387 748.614 02:45:25
31 Tuttle Lane Loft AU21-LKY-0037 147.152 2021-09-04 14:40:02.949 699.875 03:09:30
32 Tuttle Lane Loft AU21-LKY-0246 147.152 2021-09-04 14:57:58.389 667.541 03:27:26
33 Kastle Loft AU21-KAST-2172 160.808 2021-09-04 15:46:19.974 648.638 03:59:02
34 Tuttle Lane Loft AU21-LKY-0175 147.152 2021-09-04 15:49:22.233 589.452 04:18:49
35 Tuttle Lane Loft AU21-LKY-0174 147.152 2021-09-04 17:08:02.480 499.937 05:37:30
36 Tuttle Lane Loft AU21-LKY-0276 147.152 2021-09-05 09:50:01.413 284.971 12:08:17
37 Tuttle Lane Loft AU21-LKY-0231 147.152 2021-09-05 12:49:21.783 238.005 15:07:37
38 Tuttle Lane Loft AU21-LKY-0227 147.152 2021-09-05 14:00:12.418 223.457 16:18:28
Tuttle Lane Loft AU21-LKY-0074 0 0000-00-00 00:00:00.000 0.000 00:00:00
Tuttle Lane Loft AU21-LKY-0205 0 0000-00-00 00:00:00.000 0.000 00:00:00
Tuttle Lane Loft AU21-LKY-0208 0 0000-00-00 00:00:00.000 0.000 00:00:00
Tuttle Lane Loft AU21-LKY-0212 0 0000-00-00 00:00:00.000 0.000 00:00:00
Tuttle Lane Loft AU21-LKY-0230 0 0000-00-00 00:00:00.000 0.000 00:00:00
Tuttle Lane Loft AU21-LKY-0234 0 0000-00-00 00:00:00.000 0.000 00:00:00
Tuttle Lane Loft AU21-LKY-0235 0 0000-00-00 00:00:00.000 0.000 00:00:00
Tuttle Lane Loft AU21-LKY-0250 0 0000-00-00 00:00:00.000 0.000 00:00:00
Tuttle Lane Loft AU21-LKY-0277 0 0000-00-00 00:00:00.000 0.000 00:00:00
Tuttle Lane Loft AU21-LKY-0278 0 0000-00-00 00:00:00.000 0.000 00:00:00